sensor_id;sensor_type;location;lat;lon;timestamp;temperature;humidity
21559;DHT22;10940;48.890;8.240;2023-05-07T00:00:33;13.50;99.90
21559;DHT22;10940;48.890;8.240;2023-05-07T00:02:59;13.40;99.90
21559;DHT22;10940;48.890;8.240;2023-05-07T00:05:25;13.40;99.90
21559;DHT22;10940;48.890;8.240;2023-05-07T00:07:51;13.40;99.90
21559;DHT22;10940;48.890;8.240;2023-05-07T00:10:18;13.40;99.90
21559;DHT22;10940;48.890;8.240;2023-05-07T00:12:43;13.40;99.90
21559;DHT22;10940;48.890;8.240;2023-05-07T00:15:10;13.40;99.90
21559;DHT22;10940;48.890;8.240;2023-05-07T00:17:36;13.30;99.90
21559;DHT22;10940;48.890;8.240;2023-05-07T00:20:03;13.30;99.90
21559;DHT22;10940;48.890;8.240;2023-05-07T00:22:29;13.30;99.90
21559;DHT22;10940;48.890;8.240;2023-05-07T00:24:56;13.40;99.90
21559;DHT22;10940;48.890;8.240;2023-05-07T00:27:22;13.40;99.90
21559;DHT22;10940;48.890;8.240;2023-05-07T00:29:47;13.50;99.90
21559;DHT22;10940;48.890;8.240;2023-05-07T00:32:13;13.50;99.90
21559;DHT22;10940;48.890;8.240;2023-05-07T00:34:39;13.50;99.90
21559;DHT22;10940;48.890;8.240;2023-05-07T00:37:05;13.50;99.90
21559;DHT22;10940;48.890;8.240;2023-05-07T00:39:33;13.40;99.90
21559;DHT22;10940;48.890;8.240;2023-05-07T00:41:58;13.40;99.90
21559;DHT22;10940;48.890;8.240;2023-05-07T00:44:24;13.30;99.90
21559;DHT22;10940;48.890;8.240;2023-05-07T00:46:50;13.30;99.90
21559;DHT22;10940;48.890;8.240;2023-05-07T00:49:16;13.20;99.90
21559;DHT22;10940;48.890;8.240;2023-05-07T00:51:42;13.10;99.90
21559;DHT22;10940;48.890;8.240;2023-05-07T00:54:08;13.00;99.90
21559;DHT22;10940;48.890;8.240;2023-05-07T00:56:34;13.00;99.90
21559;DHT22;10940;48.890;8.240;2023-05-07T00:59:01;12.90;99.90
21559;DHT22;10940;48.890;8.240;2023-05-07T01:01:28;12.90;99.90
21559;DHT22;10940;48.890;8.240;2023-05-07T01:03:53;12.90;99.90
21559;DHT22;10940;48.890;8.240;2023-05-07T01:06:20;12.90;99.90
21559;DHT22;10940;48.890;8.240;2023-05-07T01:08:47;12.80;99.90
21559;DHT22;10940;48.890;8.240;2023-05-07T01:11:14;12.80;99.90
21559;DHT22;10940;48.890;8.240;2023-05-07T01:13:40;12.70;99.90
21559;DHT22;10940;48.890;8.240;2023-05-07T01:16:07;12.80;99.90
21559;DHT22;10940;48.890;8.240;2023-05-07T01:18:33;12.90;99.90
21559;DHT22;10940;48.890;8.240;2023-05-07T01:21:01;12.90;99.90
21559;DHT22;10940;48.890;8.240;2023-05-07T01:23:29;13.00;99.90
21559;DHT22;10940;48.890;8.240;2023-05-07T01:25:56;13.10;99.90
21559;DHT22;10940;48.890;8.240;2023-05-07T01:28:21;13.10;99.90
21559;DHT22;10940;48.890;8.240;2023-05-07T01:30:53;13.20;99.90
21559;DHT22;10940;48.890;8.240;2023-05-07T01:33:21;13.20;99.90
21559;DHT22;10940;48.890;8.240;2023-05-07T01:35:50;13.20;99.90
21559;DHT22;10940;48.890;8.240;2023-05-07T01:38:17;13.20;99.90
21559;DHT22;10940;48.890;8.240;2023-05-07T01:40:43;13.20;99.90
21559;DHT22;10940;48.890;8.240;2023-05-07T01:43:09;13.20;99.90
21559;DHT22;10940;48.890;8.240;2023-05-07T01:45:36;13.10;99.90
21559;DHT22;10940;48.890;8.240;2023-05-07T01:48:03;13.10;99.90
21559;DHT22;10940;48.890;8.240;2023-05-07T01:50:30;13.10;99.90
21559;DHT22;10940;48.890;8.240;2023-05-07T01:52:55;13.00;99.90
21559;DHT22;10940;48.890;8.240;2023-05-07T01:55:21;13.00;99.90
21559;DHT22;10940;48.890;8.240;2023-05-07T01:57:47;13.00;99.90
21559;DHT22;10940;48.890;8.240;2023-05-07T02:00:13;12.90;99.90
21559;DHT22;10940;48.890;8.240;2023-05-07T02:02:38;13.00;99.90
21559;DHT22;10940;48.890;8.240;2023-05-07T02:05:04;12.90;99.90
21559;DHT22;10940;48.890;8.240;2023-05-07T02:07:30;13.00;99.90
21559;DHT22;10940;48.890;8.240;2023-05-07T02:09:56;13.00;99.90
21559;DHT22;10940;48.890;8.240;2023-05-07T02:12:22;13.00;99.90
21559;DHT22;10940;48.890;8.240;2023-05-07T02:14:48;12.90;99.90
21559;DHT22;10940;48.890;8.240;2023-05-07T02:17:13;12.90;99.90
21559;DHT22;10940;48.890;8.240;2023-05-07T02:19:39;12.80;99.90
21559;DHT22;10940;48.890;8.240;2023-05-07T02:22:05;12.80;99.90
21559;DHT22;10940;48.890;8.240;2023-05-07T02:24:30;12.80;99.90
21559;DHT22;10940;48.890;8.240;2023-05-07T02:26:56;12.70;99.90
21559;DHT22;10940;48.890;8.240;2023-05-07T02:29:21;12.70;99.90
21559;DHT22;10940;48.890;8.240;2023-05-07T02:31:47;12.70;99.90
21559;DHT22;10940;48.890;8.240;2023-05-07T02:34:16;12.60;99.90
21559;DHT22;10940;48.890;8.240;2023-05-07T02:36:42;12.60;99.90
21559;DHT22;10940;48.890;8.240;2023-05-07T02:39:08;12.50;99.90
21559;DHT22;10940;48.890;8.240;2023-05-07T02:41:33;12.50;99.90
21559;DHT22;10940;48.890;8.240;2023-05-07T02:43:59;12.40;99.90
21559;DHT22;10940;48.890;8.240;2023-05-07T02:46:24;12.40;99.90
21559;DHT22;10940;48.890;8.240;2023-05-07T02:48:50;12.30;99.90
21559;DHT22;10940;48.890;8.240;2023-05-07T02:51:19;12.30;99.90
21559;DHT22;10940;48.890;8.240;2023-05-07T02:53:45;12.30;99.90
21559;DHT22;10940;48.890;8.240;2023-05-07T02:56:11;12.30;99.90
21559;DHT22;10940;48.890;8.240;2023-05-07T02:58:37;12.30;99.90
21559;DHT22;10940;48.890;8.240;2023-05-07T03:01:05;12.30;99.90
21559;DHT22;10940;48.890;8.240;2023-05-07T03:03:30;12.30;99.90
21559;DHT22;10940;48.890;8.240;2023-05-07T03:05:56;12.20;99.90
21559;DHT22;10940;48.890;8.240;2023-05-07T03:08:21;12.20;99.90
21559;DHT22;10940;48.890;8.240;2023-05-07T03:10:47;12.20;99.90
21559;DHT22;10940;48.890;8.240;2023-05-07T03:13:13;12.20;99.90
21559;DHT22;10940;48.890;8.240;2023-05-07T03:15:38;12.20;99.90
21559;DHT22;10940;48.890;8.240;2023-05-07T03:18:04;12.10;99.90
21559;DHT22;10940;48.890;8.240;2023-05-07T03:20:29;12.10;99.90
21559;DHT22;10940;48.890;8.240;2023-05-07T03:22:55;12.10;99.90
21559;DHT22;10940;48.890;8.240;2023-05-07T03:25:21;12.10;99.90
21559;DHT22;10940;48.890;8.240;2023-05-07T03:27:46;12.20;99.90
21559;DHT22;10940;48.890;8.240;2023-05-07T03:30:12;12.20;99.90
21559;DHT22;10940;48.890;8.240;2023-05-07T03:32:38;12.20;99.90
21559;DHT22;10940;48.890;8.240;2023-05-07T03:35:03;12.10;99.90
21559;DHT22;10940;48.890;8.240;2023-05-07T03:37:29;12.20;99.90
21559;DHT22;10940;48.890;8.240;2023-05-07T03:39:55;12.20;99.90
21559;DHT22;10940;48.890;8.240;2023-05-07T03:42:21;12.10;99.90
21559;DHT22;10940;48.890;8.240;2023-05-07T03:44:46;12.10;99.90
21559;DHT22;10940;48.890;8.240;2023-05-07T03:47:12;12.00;99.90
21559;DHT22;10940;48.890;8.240;2023-05-07T03:49:38;12.00;99.90
21559;DHT22;10940;48.890;8.240;2023-05-07T03:52:05;12.00;99.90
21559;DHT22;10940;48.890;8.240;2023-05-07T03:54:31;12.00;99.90
21559;DHT22;10940;48.890;8.240;2023-05-07T03:56:56;11.90;99.90
21559;DHT22;10940;48.890;8.240;2023-05-07T03:59:22;12.00;99.90
21559;DHT22;10940;48.890;8.240;2023-05-07T04:01:48;12.00;99.90
21559;DHT22;10940;48.890;8.240;2023-05-07T04:04:16;12.00;99.90
21559;DHT22;10940;48.890;8.240;2023-05-07T04:06:42;12.00;99.90
21559;DHT22;10940;48.890;8.240;2023-05-07T04:09:08;12.00;99.90
21559;DHT22;10940;48.890;8.240;2023-05-07T04:11:34;12.00;99.90
21559;DHT22;10940;48.890;8.240;2023-05-07T04:14:00;12.00;99.90
21559;DHT22;10940;48.890;8.240;2023-05-07T04:16:26;12.10;99.90
21559;DHT22;10940;48.890;8.240;2023-05-07T04:18:51;12.10;99.90
21559;DHT22;10940;48.890;8.240;2023-05-07T04:21:18;12.10;99.90
21559;DHT22;10940;48.890;8.240;2023-05-07T04:23:45;12.10;99.90
21559;DHT22;10940;48.890;8.240;2023-05-07T04:26:11;12.10;99.90
21559;DHT22;10940;48.890;8.240;2023-05-07T04:28:37;12.10;99.90
21559;DHT22;10940;48.890;8.240;2023-05-07T04:31:03;12.10;99.90
21559;DHT22;10940;48.890;8.240;2023-05-07T04:33:29;12.10;99.90
21559;DHT22;10940;48.890;8.240;2023-05-07T04:35:54;12.10;99.90
21559;DHT22;10940;48.890;8.240;2023-05-07T04:38:20;12.10;99.90
21559;DHT22;10940;48.890;8.240;2023-05-07T04:40:45;12.10;99.90
21559;DHT22;10940;48.890;8.240;2023-05-07T04:43:12;12.20;99.90
21559;DHT22;10940;48.890;8.240;2023-05-07T04:45:38;12.20;99.90
21559;DHT22;10940;48.890;8.240;2023-05-07T04:48:07;12.20;99.90
21559;DHT22;10940;48.890;8.240;2023-05-07T04:50:32;12.20;99.90
21559;DHT22;10940;48.890;8.240;2023-05-07T04:52:58;12.20;99.90
21559;DHT22;10940;48.890;8.240;2023-05-07T04:55:24;12.30;99.90
21559;DHT22;10940;48.890;8.240;2023-05-07T04:57:49;12.30;99.90
21559;DHT22;10940;48.890;8.240;2023-05-07T05:00:15;12.40;99.90
21559;DHT22;10940;48.890;8.240;2023-05-07T05:02:41;12.40;99.90
21559;DHT22;10940;48.890;8.240;2023-05-07T05:05:07;12.40;99.90
21559;DHT22;10940;48.890;8.240;2023-05-07T05:07:33;12.50;99.90
21559;DHT22;10940;48.890;8.240;2023-05-07T05:09:59;12.50;99.90
21559;DHT22;10940;48.890;8.240;2023-05-07T05:12:24;12.60;99.90
21559;DHT22;10940;48.890;8.240;2023-05-07T05:14:50;12.70;99.90
21559;DHT22;10940;48.890;8.240;2023-05-07T05:17:16;12.70;99.90
21559;DHT22;10940;48.890;8.240;2023-05-07T05:19:41;12.70;99.90
21559;DHT22;10940;48.890;8.240;2023-05-07T05:22:07;12.90;99.90
21559;DHT22;10940;48.890;8.240;2023-05-07T05:24:32;12.90;99.90
21559;DHT22;10940;48.890;8.240;2023-05-07T05:26:58;13.00;99.90
21559;DHT22;10940;48.890;8.240;2023-05-07T05:29:27;13.10;99.90
21559;DHT22;10940;48.890;8.240;2023-05-07T05:31:52;13.20;99.90
21559;DHT22;10940;48.890;8.240;2023-05-07T05:34:18;13.40;99.90
21559;DHT22;10940;48.890;8.240;2023-05-07T05:36:45;13.50;99.90
21559;DHT22;10940;48.890;8.240;2023-05-07T05:39:11;13.60;99.90
21559;DHT22;10940;48.890;8.240;2023-05-07T05:41:36;13.70;99.90
21559;DHT22;10940;48.890;8.240;2023-05-07T05:44:02;13.80;99.90
21559;DHT22;10940;48.890;8.240;2023-05-07T05:46:27;13.90;99.90
21559;DHT22;10940;48.890;8.240;2023-05-07T05:48:53;14.00;99.90
21559;DHT22;10940;48.890;8.240;2023-05-07T05:51:18;14.00;99.90
21559;DHT22;10940;48.890;8.240;2023-05-07T05:53:44;14.10;99.90
21559;DHT22;10940;48.890;8.240;2023-05-07T05:56:10;14.30;99.90
21559;DHT22;10940;48.890;8.240;2023-05-07T05:58:35;14.40;99.90
21559;DHT22;10940;48.890;8.240;2023-05-07T06:01:01;14.40;99.90
21559;DHT22;10940;48.890;8.240;2023-05-07T06:03:28;14.50;99.90
21559;DHT22;10940;48.890;8.240;2023-05-07T06:05:53;14.50;99.90
21559;DHT22;10940;48.890;8.240;2023-05-07T06:08:19;14.60;99.90
21559;DHT22;10940;48.890;8.240;2023-05-07T06:10:45;14.70;99.90
21559;DHT22;10940;48.890;8.240;2023-05-07T06:13:10;14.80;99.90
21559;DHT22;10940;48.890;8.240;2023-05-07T06:15:36;14.80;99.90
21559;DHT22;10940;48.890;8.240;2023-05-07T06:18:02;14.80;99.90
21559;DHT22;10940;48.890;8.240;2023-05-07T06:20:28;14.90;99.90
21559;DHT22;10940;48.890;8.240;2023-05-07T06:22:53;15.00;99.90
21559;DHT22;10940;48.890;8.240;2023-05-07T06:25:19;15.00;99.90
21559;DHT22;10940;48.890;8.240;2023-05-07T06:27:45;15.10;99.90
21559;DHT22;10940;48.890;8.240;2023-05-07T06:30:11;15.20;99.90
21559;DHT22;10940;48.890;8.240;2023-05-07T06:32:36;15.20;99.90
21559;DHT22;10940;48.890;8.240;2023-05-07T06:35:02;15.30;99.90
21559;DHT22;10940;48.890;8.240;2023-05-07T06:37:28;15.40;99.90
21559;DHT22;10940;48.890;8.240;2023-05-07T06:39:53;15.40;99.90
21559;DHT22;10940;48.890;8.240;2023-05-07T06:42:19;15.40;99.90
21559;DHT22;10940;48.890;8.240;2023-05-07T06:44:44;15.50;99.90
21559;DHT22;10940;48.890;8.240;2023-05-07T06:47:10;15.50;99.90
21559;DHT22;10940;48.890;8.240;2023-05-07T06:49:36;15.60;99.90
21559;DHT22;10940;48.890;8.240;2023-05-07T06:52:01;15.70;99.90
21559;DHT22;10940;48.890;8.240;2023-05-07T06:54:27;15.70;99.90
21559;DHT22;10940;48.890;8.240;2023-05-07T06:56:52;15.70;99.90
21559;DHT22;10940;48.890;8.240;2023-05-07T06:59:18;15.80;99.90
21559;DHT22;10940;48.890;8.240;2023-05-07T07:01:44;16.00;99.90
21559;DHT22;10940;48.890;8.240;2023-05-07T07:04:10;16.10;99.90
21559;DHT22;10940;48.890;8.240;2023-05-07T07:06:35;16.10;99.90
21559;DHT22;10940;48.890;8.240;2023-05-07T07:09:01;16.20;99.90
21559;DHT22;10940;48.890;8.240;2023-05-07T07:11:27;16.30;99.90
21559;DHT22;10940;48.890;8.240;2023-05-07T07:13:52;16.30;99.90
21559;DHT22;10940;48.890;8.240;2023-05-07T07:16:20;16.40;99.90
21559;DHT22;10940;48.890;8.240;2023-05-07T07:18:46;16.40;99.90
21559;DHT22;10940;48.890;8.240;2023-05-07T07:21:11;16.40;99.90
21559;DHT22;10940;48.890;8.240;2023-05-07T07:23:37;16.50;99.90
21559;DHT22;10940;48.890;8.240;2023-05-07T07:26:03;16.50;99.90
21559;DHT22;10940;48.890;8.240;2023-05-07T07:28:28;16.50;99.90
21559;DHT22;10940;48.890;8.240;2023-05-07T07:30:54;16.70;99.90
21559;DHT22;10940;48.890;8.240;2023-05-07T07:33:19;16.70;99.90
21559;DHT22;10940;48.890;8.240;2023-05-07T07:35:45;16.80;99.90
21559;DHT22;10940;48.890;8.240;2023-05-07T07:38:11;16.80;99.90
21559;DHT22;10940;48.890;8.240;2023-05-07T07:40:36;16.90;99.90
21559;DHT22;10940;48.890;8.240;2023-05-07T07:43:02;16.90;99.90
21559;DHT22;10940;48.890;8.240;2023-05-07T07:45:28;16.90;99.90
21559;DHT22;10940;48.890;8.240;2023-05-07T07:47:54;16.90;99.90
21559;DHT22;10940;48.890;8.240;2023-05-07T07:50:20;16.80;99.90
21559;DHT22;10940;48.890;8.240;2023-05-07T07:52:46;16.80;99.90
21559;DHT22;10940;48.890;8.240;2023-05-07T07:55:12;16.80;99.90
21559;DHT22;10940;48.890;8.240;2023-05-07T07:57:37;16.80;99.90
21559;DHT22;10940;48.890;8.240;2023-05-07T08:00:03;16.70;99.90
21559;DHT22;10940;48.890;8.240;2023-05-07T08:02:29;16.80;99.90
21559;DHT22;10940;48.890;8.240;2023-05-07T08:04:55;16.80;99.90
21559;DHT22;10940;48.890;8.240;2023-05-07T08:07:21;16.90;99.90
21559;DHT22;10940;48.890;8.240;2023-05-07T08:09:48;17.00;99.90
21559;DHT22;10940;48.890;8.240;2023-05-07T08:12:13;17.10;99.90
21559;DHT22;10940;48.890;8.240;2023-05-07T08:14:39;17.30;99.90
21559;DHT22;10940;48.890;8.240;2023-05-07T08:17:04;17.40;99.90
21559;DHT22;10940;48.890;8.240;2023-05-07T08:19:30;17.50;99.90
21559;DHT22;10940;48.890;8.240;2023-05-07T08:21:56;17.60;99.90
21559;DHT22;10940;48.890;8.240;2023-05-07T08:24:21;17.50;99.90
21559;DHT22;10940;48.890;8.240;2023-05-07T08:26:47;17.70;99.90
21559;DHT22;10940;48.890;8.240;2023-05-07T08:29:12;17.70;99.90
21559;DHT22;10940;48.890;8.240;2023-05-07T08:31:38;17.90;99.90
21559;DHT22;10940;48.890;8.240;2023-05-07T08:34:05;18.00;99.90
21559;DHT22;10940;48.890;8.240;2023-05-07T08:36:31;18.00;99.90
21559;DHT22;10940;48.890;8.240;2023-05-07T08:38:57;18.00;99.90
21559;DHT22;10940;48.890;8.240;2023-05-07T08:41:23;18.10;99.90
21559;DHT22;10940;48.890;8.240;2023-05-07T08:43:49;18.30;99.90
21559;DHT22;10940;48.890;8.240;2023-05-07T08:46:22;18.40;99.90
21559;DHT22;10940;48.890;8.240;2023-05-07T08:48:48;18.60;99.90
21559;DHT22;10940;48.890;8.240;2023-05-07T08:51:17;18.80;99.90
21559;DHT22;10940;48.890;8.240;2023-05-07T08:53:44;18.90;99.90
21559;DHT22;10940;48.890;8.240;2023-05-07T08:56:09;19.10;99.90
21559;DHT22;10940;48.890;8.240;2023-05-07T08:58:35;19.20;99.90
21559;DHT22;10940;48.890;8.240;2023-05-07T09:01:05;19.30;99.90
21559;DHT22;10940;48.890;8.240;2023-05-07T09:03:32;19.40;99.90
21559;DHT22;10940;48.890;8.240;2023-05-07T09:05:57;19.40;99.90
21559;DHT22;10940;48.890;8.240;2023-05-07T09:08:27;19.40;99.90
21559;DHT22;10940;48.890;8.240;2023-05-07T09:10:53;19.50;99.90
21559;DHT22;10940;48.890;8.240;2023-05-07T09:13:19;19.50;99.90
21559;DHT22;10940;48.890;8.240;2023-05-07T09:15:45;19.70;99.90
21559;DHT22;10940;48.890;8.240;2023-05-07T09:18:12;19.80;99.90
21559;DHT22;10940;48.890;8.240;2023-05-07T09:20:37;19.90;99.90
21559;DHT22;10940;48.890;8.240;2023-05-07T09:23:03;20.10;99.90
21559;DHT22;10940;48.890;8.240;2023-05-07T09:25:31;20.20;99.90
21559;DHT22;10940;48.890;8.240;2023-05-07T09:27:57;20.10;99.90
21559;DHT22;10940;48.890;8.240;2023-05-07T09:30:22;20.10;99.90
21559;DHT22;10940;48.890;8.240;2023-05-07T09:32:48;20.20;99.90
21559;DHT22;10940;48.890;8.240;2023-05-07T09:35:17;20.30;99.90
21559;DHT22;10940;48.890;8.240;2023-05-07T09:37:43;20.40;99.90
21559;DHT22;10940;48.890;8.240;2023-05-07T09:40:20;20.50;99.90
21559;DHT22;10940;48.890;8.240;2023-05-07T09:42:47;20.40;99.90
21559;DHT22;10940;48.890;8.240;2023-05-07T09:45:13;20.50;99.90
21559;DHT22;10940;48.890;8.240;2023-05-07T09:47:39;20.50;99.90
21559;DHT22;10940;48.890;8.240;2023-05-07T09:50:10;20.60;99.90
21559;DHT22;10940;48.890;8.240;2023-05-07T09:52:39;20.70;99.90
21559;DHT22;10940;48.890;8.240;2023-05-07T09:55:06;20.80;99.90
21559;DHT22;10940;48.890;8.240;2023-05-07T09:57:33;20.90;99.90
21559;DHT22;10940;48.890;8.240;2023-05-07T09:59:59;20.90;99.90
21559;DHT22;10940;48.890;8.240;2023-05-07T10:02:30;21.10;99.90
21559;DHT22;10940;48.890;8.240;2023-05-07T10:04:57;21.30;99.90
21559;DHT22;10940;48.890;8.240;2023-05-07T10:07:26;21.40;99.90
21559;DHT22;10940;48.890;8.240;2023-05-07T10:09:52;21.50;99.90
21559;DHT22;10940;48.890;8.240;2023-05-07T10:12:18;21.60;99.90
21559;DHT22;10940;48.890;8.240;2023-05-07T10:14:45;21.60;99.90
21559;DHT22;10940;48.890;8.240;2023-05-07T10:17:13;21.60;99.90
21559;DHT22;10940;48.890;8.240;2023-05-07T10:19:43;21.70;99.90
21559;DHT22;10940;48.890;8.240;2023-05-07T10:22:09;21.70;99.90
21559;DHT22;10940;48.890;8.240;2023-05-07T10:24:36;21.70;99.90
21559;DHT22;10940;48.890;8.240;2023-05-07T10:27:05;21.70;99.90
21559;DHT22;10940;48.890;8.240;2023-05-07T10:29:58;21.80;99.90
21559;DHT22;10940;48.890;8.240;2023-05-07T10:32:48;21.90;99.90
21559;DHT22;10940;48.890;8.240;2023-05-07T10:35:18;22.00;99.90
21559;DHT22;10940;48.890;8.240;2023-05-07T10:37:46;22.10;99.90
21559;DHT22;10940;48.890;8.240;2023-05-07T10:40:12;22.20;99.90
21559;DHT22;10940;48.890;8.240;2023-05-07T10:42:39;22.40;99.90
21559;DHT22;10940;48.890;8.240;2023-05-07T10:45:14;22.50;99.90
21559;DHT22;10940;48.890;8.240;2023-05-07T10:50:31;22.70;99.90
21559;DHT22;10940;48.890;8.240;2023-05-07T10:53:23;22.70;99.90
21559;DHT22;10940;48.890;8.240;2023-05-07T10:56:23;22.80;99.90
21559;DHT22;10940;48.890;8.240;2023-05-07T10:58:37;22.90;99.90
21559;DHT22;10940;48.890;8.240;2023-05-07T11:01:03;23.00;99.90
21559;DHT22;10940;48.890;8.240;2023-05-07T11:03:29;23.10;99.90
21559;DHT22;10940;48.890;8.240;2023-05-07T11:06:12;23.30;99.90
21559;DHT22;10940;48.890;8.240;2023-05-07T11:08:54;23.50;99.90
21559;DHT22;10940;48.890;8.240;2023-05-07T11:11:20;23.70;99.90
21559;DHT22;10940;48.890;8.240;2023-05-07T11:13:46;23.80;99.90
21559;DHT22;10940;48.890;8.240;2023-05-07T11:16:23;23.90;99.90
21559;DHT22;10940;48.890;8.240;2023-05-07T11:18:51;23.90;99.90
21559;DHT22;10940;48.890;8.240;2023-05-07T11:21:39;24.10;99.90
21559;DHT22;10940;48.890;8.240;2023-05-07T11:24:06;24.30;99.90
21559;DHT22;10940;48.890;8.240;2023-05-07T11:27:02;24.60;99.90
21559;DHT22;10940;48.890;8.240;2023-05-07T11:29:28;24.80;99.90
21559;DHT22;10940;48.890;8.240;2023-05-07T11:31:55;24.90;99.90
21559;DHT22;10940;48.890;8.240;2023-05-07T11:34:25;24.90;99.90
21559;DHT22;10940;48.890;8.240;2023-05-07T11:36:52;24.70;99.90
21559;DHT22;10940;48.890;8.240;2023-05-07T11:39:31;24.70;99.90
21559;DHT22;10940;48.890;8.240;2023-05-07T11:41:59;24.70;99.90
21559;DHT22;10940;48.890;8.240;2023-05-07T11:44:25;24.80;99.90
21559;DHT22;10940;48.890;8.240;2023-05-07T11:46:50;24.80;99.90
21559;DHT22;10940;48.890;8.240;2023-05-07T11:49:17;24.80;99.90
21559;DHT22;10940;48.890;8.240;2023-05-07T11:51:43;24.90;99.90
21559;DHT22;10940;48.890;8.240;2023-05-07T11:54:09;24.80;99.90
21559;DHT22;10940;48.890;8.240;2023-05-07T11:56:37;24.80;99.90
21559;DHT22;10940;48.890;8.240;2023-05-07T11:59:02;24.80;99.90
21559;DHT22;10940;48.890;8.240;2023-05-07T12:01:28;24.90;99.90
21559;DHT22;10940;48.890;8.240;2023-05-07T12:03:54;25.00;99.90
21559;DHT22;10940;48.890;8.240;2023-05-07T12:06:19;25.00;99.90
21559;DHT22;10940;48.890;8.240;2023-05-07T12:08:46;25.00;99.90
21559;DHT22;10940;48.890;8.240;2023-05-07T12:11:30;25.00;99.90
21559;DHT22;10940;48.890;8.240;2023-05-07T12:13:55;24.90;99.90
21559;DHT22;10940;48.890;8.240;2023-05-07T12:16:21;24.90;99.90
21559;DHT22;10940;48.890;8.240;2023-05-07T12:18:47;24.90;99.90
21559;DHT22;10940;48.890;8.240;2023-05-07T12:21:13;24.80;99.90
21559;DHT22;10940;48.890;8.240;2023-05-07T12:23:39;24.90;99.90
21559;DHT22;10940;48.890;8.240;2023-05-07T12:26:05;24.80;99.90
21559;DHT22;10940;48.890;8.240;2023-05-07T12:28:31;24.80;99.90
21559;DHT22;10940;48.890;8.240;2023-05-07T12:31:01;24.40;99.90
21559;DHT22;10940;48.890;8.240;2023-05-07T12:33:27;24.20;99.90
21559;DHT22;10940;48.890;8.240;2023-05-07T12:35:55;24.20;99.90
21559;DHT22;10940;48.890;8.240;2023-05-07T12:38:21;24.20;99.90
21559;DHT22;10940;48.890;8.240;2023-05-07T12:40:48;24.10;99.90
21559;DHT22;10940;48.890;8.240;2023-05-07T12:45:47;24.20;99.90
21559;DHT22;10940;48.890;8.240;2023-05-07T12:48:14;24.30;99.90
21559;DHT22;10940;48.890;8.240;2023-05-07T12:50:39;24.40;99.90
21559;DHT22;10940;48.890;8.240;2023-05-07T12:53:06;24.50;99.90
21559;DHT22;10940;48.890;8.240;2023-05-07T12:55:50;24.60;99.90
21559;DHT22;10940;48.890;8.240;2023-05-07T12:58:21;24.50;99.90
21559;DHT22;10940;48.890;8.240;2023-05-07T13:00:49;24.60;99.90
21559;DHT22;10940;48.890;8.240;2023-05-07T13:03:23;24.70;99.90
21559;DHT22;10940;48.890;8.240;2023-05-07T13:05:50;24.80;99.90
21559;DHT22;10940;48.890;8.240;2023-05-07T13:08:25;24.90;99.90
21559;DHT22;10940;48.890;8.240;2023-05-07T13:10:51;25.00;99.90
21559;DHT22;10940;48.890;8.240;2023-05-07T13:13:18;25.00;99.90
21559;DHT22;10940;48.890;8.240;2023-05-07T13:15:44;25.00;99.90
21559;DHT22;10940;48.890;8.240;2023-05-07T13:18:10;24.80;99.90
21559;DHT22;10940;48.890;8.240;2023-05-07T13:20:36;24.80;99.90
21559;DHT22;10940;48.890;8.240;2023-05-07T13:23:02;24.70;99.90
21559;DHT22;10940;48.890;8.240;2023-05-07T13:25:30;24.50;99.90
21559;DHT22;10940;48.890;8.240;2023-05-07T13:27:56;24.50;99.90
21559;DHT22;10940;48.890;8.240;2023-05-07T13:30:22;24.50;99.90
21559;DHT22;10940;48.890;8.240;2023-05-07T13:32:48;24.50;99.90
21559;DHT22;10940;48.890;8.240;2023-05-07T13:35:14;24.50;99.90
21559;DHT22;10940;48.890;8.240;2023-05-07T13:37:40;24.50;99.90
21559;DHT22;10940;48.890;8.240;2023-05-07T13:40:06;24.50;99.90
21559;DHT22;10940;48.890;8.240;2023-05-07T13:42:32;24.40;99.90
21559;DHT22;10940;48.890;8.240;2023-05-07T13:44:57;24.20;99.90
21559;DHT22;10940;48.890;8.240;2023-05-07T13:47:23;24.20;99.90
21559;DHT22;10940;48.890;8.240;2023-05-07T13:49:48;24.20;99.90
21559;DHT22;10940;48.890;8.240;2023-05-07T13:52:15;24.10;99.90
21559;DHT22;10940;48.890;8.240;2023-05-07T13:54:42;24.10;99.90
21559;DHT22;10940;48.890;8.240;2023-05-07T13:57:08;24.00;99.90
21559;DHT22;10940;48.890;8.240;2023-05-07T13:59:34;24.00;99.90
21559;DHT22;10940;48.890;8.240;2023-05-07T14:02:00;23.90;99.90
21559;DHT22;10940;48.890;8.240;2023-05-07T14:04:25;23.90;99.90
21559;DHT22;10940;48.890;8.240;2023-05-07T14:06:51;23.80;99.90
21559;DHT22;10940;48.890;8.240;2023-05-07T14:09:16;23.70;99.90
21559;DHT22;10940;48.890;8.240;2023-05-07T14:11:42;23.60;99.90
21559;DHT22;10940;48.890;8.240;2023-05-07T14:14:08;23.60;99.90
21559;DHT22;10940;48.890;8.240;2023-05-07T14:16:36;23.70;99.90
21559;DHT22;10940;48.890;8.240;2023-05-07T14:19:02;23.70;99.90
21559;DHT22;10940;48.890;8.240;2023-05-07T14:21:28;23.70;99.90
21559;DHT22;10940;48.890;8.240;2023-05-07T14:23:53;23.80;99.90
21559;DHT22;10940;48.890;8.240;2023-05-07T14:26:19;23.70;99.90
21559;DHT22;10940;48.890;8.240;2023-05-07T14:28:46;23.70;99.90
21559;DHT22;10940;48.890;8.240;2023-05-07T14:31:12;23.70;99.90
21559;DHT22;10940;48.890;8.240;2023-05-07T14:33:37;23.70;99.90
21559;DHT22;10940;48.890;8.240;2023-05-07T14:36:03;23.50;99.90
21559;DHT22;10940;48.890;8.240;2023-05-07T14:38:29;23.20;99.90
21559;DHT22;10940;48.890;8.240;2023-05-07T14:40:56;23.10;99.90
21559;DHT22;10940;48.890;8.240;2023-05-07T14:43:21;22.80;99.90
21559;DHT22;10940;48.890;8.240;2023-05-07T14:45:47;22.50;99.90
21559;DHT22;10940;48.890;8.240;2023-05-07T14:48:13;22.40;99.90
21559;DHT22;10940;48.890;8.240;2023-05-07T14:50:41;22.40;99.90
21559;DHT22;10940;48.890;8.240;2023-05-07T14:53:07;22.40;99.90
21559;DHT22;10940;48.890;8.240;2023-05-07T14:55:34;22.40;99.90
21559;DHT22;10940;48.890;8.240;2023-05-07T14:58:00;22.40;99.90
21559;DHT22;10940;48.890;8.240;2023-05-07T15:00:25;22.40;99.90
21559;DHT22;10940;48.890;8.240;2023-05-07T15:02:51;22.50;99.90
21559;DHT22;10940;48.890;8.240;2023-05-07T15:05:17;22.60;99.90
21559;DHT22;10940;48.890;8.240;2023-05-07T15:07:44;22.70;99.90
21559;DHT22;10940;48.890;8.240;2023-05-07T15:10:10;22.80;99.90
21559;DHT22;10940;48.890;8.240;2023-05-07T15:12:36;22.90;99.90
21559;DHT22;10940;48.890;8.240;2023-05-07T15:15:01;22.90;99.90
21559;DHT22;10940;48.890;8.240;2023-05-07T15:17:27;22.80;99.90
21559;DHT22;10940;48.890;8.240;2023-05-07T15:19:53;22.80;99.90
21559;DHT22;10940;48.890;8.240;2023-05-07T15:22:19;22.80;99.90
21559;DHT22;10940;48.890;8.240;2023-05-07T15:24:46;22.70;99.90
21559;DHT22;10940;48.890;8.240;2023-05-07T15:27:12;22.60;99.90
21559;DHT22;10940;48.890;8.240;2023-05-07T15:29:37;22.40;99.90
21559;DHT22;10940;48.890;8.240;2023-05-07T15:32:03;22.40;99.90